Time;durP1;ratioP1;P1;durP2;ratioP2;P2;SDS_P1;SDS_P2;PMS_P1;PMS_P2;Temp;Humidity;BMP_temperature;BMP_pressure;BME280_temperature;BME280_humidity;BME280_pressure;Samples;Min_cycle;Max_cycle;Signal;HPM_P1;HPM_P2
2023/10/26 03:32:52;;;;;;;1.13;0.95;;;8.40;99.90;;;;;;4713462;23;20327;-72
2023/10/26 03:35:18;;;;;;;1.05;0.90;;;8.40;99.90;;;;;;4971327;28;20208;-72
2023/10/26 03:37:45;;;;;;;1.30;0.90;;;8.40;99.90;;;;;;4972062;28;20216;-72
2023/10/26 03:40:14;;;;;;;1.17;1.08;;;8.40;99.90;;;;;;4972335;28;20574;-72
2023/10/26 03:42:41;;;;;;;1.23;1.10;;;8.40;99.90;;;;;;4952784;28;20228;-72
2023/10/26 03:45:08;;;;;;;1.05;0.90;;;8.40;99.90;;;;;;4952144;28;20200;-72
2023/10/26 03:47:35;;;;;;;1.25;1.15;;;8.30;99.90;;;;;;4951423;28;20204;-72
2023/10/26 03:50:04;;;;;;;1.35;1.25;;;8.30;99.90;;;;;;4952120;28;20216;-72
2023/10/26 03:52:31;;;;;;;1.23;0.90;;;8.30;99.90;;;;;;4952304;28;20612;-72
2023/10/26 03:54:58;;;;;;;1.00;0.88;;;8.40;99.90;;;;;;4951841;28;20204;-72
2023/10/26 03:57:24;;;;;;;1.00;0.90;;;8.40;99.90;;;;;;4951981;28;20204;-72
2023/10/26 03:59:51;;;;;;;1.38;1.27;;;8.40;99.90;;;;;;4952081;28;20208;-73
2023/10/26 04:02:18;;;;;;;1.20;1.10;;;8.50;99.90;;;;;;4952351;28;20220;-72
2023/10/26 04:04:45;;;;;;;1.33;1.13;;;8.50;99.90;;;;;;4951631;28;20719;-72
2023/10/26 04:07:13;;;;;;;1.30;1.10;;;8.50;99.90;;;;;;4951841;28;20340;-73
2023/10/26 04:09:39;;;;;;;1.20;1.10;;;8.50;99.90;;;;;;4952131;28;20216;-72
2023/10/26 04:12:06;;;;;;;1.35;1.23;;;8.50;99.90;;;;;;4951588;28;20228;-72
2023/10/26 04:14:33;;;;;;;1.50;1.15;;;8.50;99.90;;;;;;4952188;28;20200;-72
2023/10/26 04:17:00;;;;;;;1.00;0.90;;;8.40;99.90;;;;;;4951779;28;20744;-72
2023/10/26 04:19:27;;;;;;;2.22;0.85;;;8.40;99.90;;;;;;4952661;28;20595;-72
2023/10/26 04:21:54;;;;;;;1.23;1.13;;;8.40;99.90;;;;;;4952165;28;20315;-72
2023/10/26 04:24:22;;;;;;;1.08;0.95;;;8.40;99.90;;;;;;4952323;28;20422;-72
2023/10/26 04:26:48;;;;;;;1.00;0.90;;;8.40;99.90;;;;;;4951712;28;20213;-72
2023/10/26 04:29:15;;;;;;;1.27;1.17;;;8.40;99.90;;;;;;4952662;28;20212;-72
2023/10/26 04:31:42;;;;;;;1.05;0.95;;;8.40;99.90;;;;;;4952267;28;20791;-72
2023/10/26 04:34:08;;;;;;;1.25;1.00;;;8.30;99.90;;;;;;4951986;28;20216;-72
2023/10/26 04:36:35;;;;;;;1.05;0.82;;;8.30;99.90;;;;;;4951646;28;20201;-72
2023/10/26 04:39:03;;;;;;;1.55;1.30;;;8.30;99.90;;;;;;4952023;28;20583;-72
2023/10/26 04:41:31;;;;;;;1.10;1.00;;;8.30;99.90;;;;;;4952478;28;20225;-72
2023/10/26 04:43:58;;;;;;;2.05;1.27;;;8.30;99.90;;;;;;4952078;28;20285;-72
2023/10/26 04:46:25;;;;;;;1.45;1.10;;;8.30;99.90;;;;;;4951895;28;20234;-72
2023/10/26 04:48:52;;;;;;;1.52;1.17;;;8.30;99.90;;;;;;4952030;28;20204;-72
2023/10/26 04:51:18;;;;;;;1.50;1.02;;;8.30;99.90;;;;;;4952343;28;20221;-72
2023/10/26 04:53:45;;;;;;;1.30;1.10;;;8.30;99.90;;;;;;4951943;28;20232;-72
2023/10/26 04:56:12;;;;;;;1.60;1.00;;;8.30;99.90;;;;;;4951736;28;20215;-72
2023/10/26 04:58:40;;;;;;;2.10;1.00;;;8.30;99.90;;;;;;4952720;28;20208;-72
2023/10/26 05:01:06;;;;;;;1.15;0.82;;;8.30;99.90;;;;;;4955543;28;20243;-72
2023/10/26 05:03:33;;;;;;;1.00;0.90;;;8.30;99.90;;;;;;4951146;28;20204;-72
2023/10/26 05:06:00;;;;;;;1.98;0.95;;;8.40;99.90;;;;;;4954938;28;20216;-72
2023/10/26 05:08:27;;;;;;;1.38;1.10;;;8.40;99.90;;;;;;4955619;28;20231;-72
2023/10/26 05:10:53;;;;;;;1.08;0.95;;;8.40;99.90;;;;;;4955303;28;20713;-72
2023/10/26 05:13:21;;;;;;;1.00;0.80;;;8.50;99.90;;;;;;4955677;28;20221;-72
2023/10/26 05:15:49;;;;;;;0.90;0.80;;;8.50;99.90;;;;;;4954821;28;20219;-72
2023/10/26 05:18:17;;;;;;;0.90;0.80;;;8.50;99.90;;;;;;4955588;28;20209;-72
2023/10/26 05:20:48;;;;;;;2.65;0.95;;;8.60;99.90;;;;;;4955281;28;20229;-72
2023/10/26 05:23:15;;;;;;;1.10;1.00;;;8.60;99.90;;;;;;4951034;29;20209;-73
2023/10/26 05:25:42;;;;;;;1.73;1.35;;;8.70;99.90;;;;;;4954838;28;20219;-72
2023/10/26 05:28:08;;;;;;;1.02;0.90;;;8.70;99.90;;;;;;4955327;28;20204;-72
2023/10/26 05:30:35;;;;;;;1.08;0.95;;;8.70;99.90;;;;;;4955324;28;20228;-72
2023/10/26 05:33:03;;;;;;;1.48;0.90;;;8.70;99.90;;;;;;4955175;28;20224;-71
2023/10/26 05:35:30;;;;;;;0.80;0.75;;;8.70;99.90;;;;;;4955086;28;20201;-72
2023/10/26 05:37:57;;;;;;;1.17;0.82;;;8.80;99.90;;;;;;4955045;28;20209;-72
2023/10/26 05:40:23;;;;;;;1.10;1.00;;;8.80;99.90;;;;;;4955331;28;20216;-72
2023/10/26 05:42:50;;;;;;;1.05;0.90;;;8.80;99.90;;;;;;4951532;29;20685;-72
2023/10/26 05:45:17;;;;;;;1.20;1.00;;;8.90;99.90;;;;;;4954752;28;20209;-72
2023/10/26 05:47:44;;;;;;;1.33;1.23;;;8.90;99.90;;;;;;4955036;28;20216;-73
2023/10/26 05:50:12;;;;;;;1.73;1.15;;;8.90;99.90;;;;;;4954860;28;20209;-72
2023/10/26 05:52:39;;;;;;;1.00;0.90;;;8.90;99.90;;;;;;4954874;28;20236;-72
2023/10/26 05:55:06;;;;;;;6.18;1.23;;;9.00;99.90;;;;;;4952488;28;20223;-72
2023/10/26 05:57:33;;;;;;;1.08;0.98;;;9.00;99.90;;;;;;4952412;28;20212;-72
2023/10/26 06:00:00;;;;;;;1.23;0.90;;;9.00;99.90;;;;;;4952382;28;20228;-72
2023/10/26 06:02:26;;;;;;;1.23;0.90;;;9.20;99.90;;;;;;4952476;28;20850;-72
2023/10/26 06:04:53;;;;;;;1.00;0.90;;;9.30;99.90;;;;;;4953243;28;20216;-72
2023/10/26 06:07:22;;;;;;;1.10;1.00;;;9.40;99.90;;;;;;4954255;28;20212;-72
2023/10/26 06:09:50;;;;;;;1.30;1.00;;;9.50;99.90;;;;;;4953971;28;20704;-72
2023/10/26 06:12:16;;;;;;;3.95;1.08;;;9.60;99.90;;;;;;4954382;28;20228;-72
2023/10/26 06:14:43;;;;;;;1.38;1.00;;;9.70;99.90;;;;;;4954052;28;20239;-72
2023/10/26 06:17:10;;;;;;;3.60;1.05;;;9.80;99.90;;;;;;4953739;28;20243;-72
2023/10/26 06:19:37;;;;;;;1.13;1.02;;;9.80;99.90;;;;;;4954328;28;20208;-72
2023/10/26 06:22:04;;;;;;;2.25;1.42;;;9.80;99.90;;;;;;4953923;28;20225;-72
2023/10/26 06:24:32;;;;;;;1.40;1.20;;;9.90;99.90;;;;;;4953970;28;20658;-72
2023/10/26 06:26:58;;;;;;;1.42;0.95;;;9.90;99.90;;;;;;4950932;28;20213;-72
2023/10/26 06:29:26;;;;;;;2.15;1.55;;;9.90;99.90;;;;;;4953912;28;20705;-72
2023/10/26 06:31:52;;;;;;;1.55;1.15;;;9.90;99.90;;;;;;4953614;28;20228;-72
2023/10/26 06:34:19;;;;;;;1.30;0.95;;;9.90;99.90;;;;;;4953302;28;20224;-72
2023/10/26 06:36:46;;;;;;;1.10;1.00;;;9.90;99.90;;;;;;4953238;28;20323;-72
2023/10/26 06:39:13;;;;;;;1.25;0.98;;;9.80;99.90;;;;;;4953701;28;20271;-72
2023/10/26 06:41:41;;;;;;;1.33;1.00;;;9.80;99.90;;;;;;4953494;28;20256;-72
2023/10/26 06:44:08;;;;;;;1.13;0.80;;;9.80;99.90;;;;;;4953443;28;20213;-72
2023/10/26 06:46:34;;;;;;;1.20;1.05;;;9.80;99.90;;;;;;4952978;28;20209;-72
2023/10/26 06:49:01;;;;;;;1.65;1.00;;;9.80;99.90;;;;;;4952900;28;20708;-72
2023/10/26 06:51:29;;;;;;;1.10;0.90;;;9.90;99.90;;;;;;4953578;28;20228;-72
2023/10/26 06:53:56;;;;;;;1.27;1.15;;;9.80;99.90;;;;;;4953318;28;20224;-72
2023/10/26 06:56:23;;;;;;;1.40;1.20;;;9.90;99.90;;;;;;4952865;28;20285;-72
2023/10/26 06:58:51;;;;;;;1.00;0.90;;;9.90;99.90;;;;;;4952971;28;20213;-72
2023/10/26 07:01:18;;;;;;;0.90;0.80;;;9.90;99.90;;;;;;4953199;28;20232;-72
2023/10/26 07:03:44;;;;;;;1.20;0.88;;;9.90;99.90;;;;;;4952983;28;20205;-72
2023/10/26 07:06:11;;;;;;;1.58;1.20;;;10.00;99.90;;;;;;4952771;28;20239;-72
2023/10/26 07:08:38;;;;;;;2.53;1.50;;;10.00;99.90;;;;;;4953275;28;20204;-72
2023/10/26 07:11:07;;;;;;;1.40;1.05;;;10.00;99.90;;;;;;4952504;28;20605;-72
2023/10/26 07:13:34;;;;;;;1.30;1.00;;;10.00;99.90;;;;;;4953101;28;20228;-72
2023/10/26 07:16:03;;;;;;;1.10;0.90;;;10.00;99.90;;;;;;4952584;28;20215;-72
2023/10/26 07:18:31;;;;;;;1.42;1.30;;;10.00;99.90;;;;;;4952868;28;20591;-72
2023/10/26 07:20:58;;;;;;;1.45;1.30;;;10.00;99.90;;;;;;4952512;28;20256;-72
2023/10/26 07:23:25;;;;;;;1.77;1.10;;;10.10;99.90;;;;;;4952389;28;20204;-73
2023/10/26 07:25:52;;;;;;;1.85;1.58;;;10.00;99.90;;;;;;4947506;29;20212;-72
2023/10/26 07:28:19;;;;;;;1.40;1.10;;;10.10;99.90;;;;;;4950998;28;20744;-72
2023/10/26 07:30:50;;;;;;;1.00;0.82;;;10.10;99.90;;;;;;4951590;28;20753;-72
2023/10/26 07:33:19;;;;;;;1.20;0.98;;;10.10;99.90;;;;;;4952508;28;20616;-72
2023/10/26 07:35:50;;;;;;;1.20;1.10;;;10.10;99.90;;;;;;4952314;28;20662;-70
2023/10/26 07:38:18;;;;;;;1.58;1.20;;;10.10;99.90;;;;;;4952833;28;20224;-70
2023/10/26 07:40:52;;;;;;;0.90;0.80;;;10.20;99.90;;;;;;4953078;28;20354;-70
2023/10/26 07:43:20;;;;;;;1.45;1.10;;;10.20;99.90;;;;;;4953619;28;20616;-70
2023/10/26 07:45:50;;;;;;;1.20;1.00;;;10.30;99.90;;;;;;4952518;28;20268;-70
2023/10/26 07:48:20;;;;;;;4.03;1.10;;;10.30;99.90;;;;;;4952447;28;20235;-70
2023/10/26 07:50:47;;;;;;;0.90;0.80;;;10.30;99.90;;;;;;4953067;28;20288;-70
2023/10/26 07:53:16;;;;;;;1.38;1.10;;;10.30;99.90;;;;;;4953129;28;20231;-70
2023/10/26 07:55:43;;;;;;;1.00;0.80;;;10.30;99.90;;;;;;4952495;28;20208;-70
2023/10/26 07:58:11;;;;;;;2.55;1.08;;;10.40;99.90;;;;;;4953110;29;20678;-72
2023/10/26 08:00:38;;;;;;;1.80;1.70;;;10.40;99.90;;;;;;4952548;29;20237;-70
2023/10/26 08:03:06;;;;;;;1.40;1.10;;;10.50;99.90;;;;;;4952433;28;20279;-70
2023/10/26 08:05:36;;;;;;;1.30;1.20;;;10.50;99.90;;;;;;4950382;29;20236;-70
2023/10/26 08:08:04;;;;;;;0.90;0.80;;;10.50;99.90;;;;;;4953039;28;20295;-73
2023/10/26 08:10:36;;;;;;;2.17;1.23;;;10.60;99.90;;;;;;4952464;28;20204;-70
2023/10/26 08:13:04;;;;;;;2.85;1.25;;;10.60;99.90;;;;;;4952559;28;20213;-71
2023/10/26 08:15:32;;;;;;;1.10;1.00;;;10.60;99.90;;;;;;4950779;28;20206;-70
2023/10/26 08:17:59;;;;;;;1.52;1.30;;;10.60;99.90;;;;;;4952865;28;20213;-70
2023/10/26 08:20:26;;;;;;;1.95;1.23;;;10.60;99.90;;;;;;4952998;28;20213;-73
2023/10/26 08:22:54;;;;;;;1.45;1.13;;;10.60;99.90;;;;;;4953010;28;20567;-72
2023/10/26 08:25:21;;;;;;;1.45;1.00;;;10.70;99.90;;;;;;4952428;28;20212;-71
2023/10/26 08:27:49;;;;;;;1.95;1.20;;;10.80;99.90;;;;;;4952629;28;20296;-70
2023/10/26 08:30:16;;;;;;;1.10;0.90;;;10.80;99.90;;;;;;4952908;28;20629;-70
2023/10/26 08:32:43;;;;;;;1.20;0.90;;;10.80;99.90;;;;;;4953744;28;20660;-70
2023/10/26 08:35:10;;;;;;;1.48;1.25;;;10.90;99.90;;;;;;4956621;28;20228;-70
2023/10/26 08:37:38;;;;;;;3.50;1.80;;;10.90;99.90;;;;;;4956289;28;20205;-70
2023/10/26 08:40:11;;;;;;;1.00;0.90;;;10.90;99.90;;;;;;4956480;28;20750;-72
2023/10/26 08:42:39;;;;;;;1.20;1.00;;;11.00;99.90;;;;;;4956362;28;20224;-71
2023/10/26 08:45:12;;;;;;;1.20;1.10;;;11.00;99.90;;;;;;4956309;28;20209;-71
2023/10/26 08:47:42;;;;;;;1.10;1.00;;;11.10;99.90;;;;;;4955007;29;20596;-71
2023/10/26 08:50:13;;;;;;;1.25;1.13;;;11.10;99.90;;;;;;4956169;28;20569;-71
2023/10/26 08:52:41;;;;;;;3.30;1.23;;;11.20;99.90;;;;;;4956038;28;20300;-74
2023/10/26 08:55:11;;;;;;;1.00;0.85;;;11.30;99.90;;;;;;4955975;28;20225;-73
2023/10/26 08:57:47;;;;;;;3.00;1.20;;;11.30;99.90;;;;;;4955781;28;20292;-72
2023/10/26 09:00:16;;;;;;;1.10;1.00;;;11.40;99.90;;;;;;4955761;28;20588;-72
2023/10/26 09:02:44;;;;;;;1.30;1.20;;;11.40;99.90;;;;;;4955734;28;20629;-72
2023/10/26 09:05:13;;;;;;;1.20;1.10;;;11.40;99.90;;;;;;4955937;28;20624;-72
2023/10/26 09:07:43;;;;;;;1.10;0.90;;;11.40;99.90;;;;;;4954147;29;20231;-72
2023/10/26 09:10:12;;;;;;;1.35;1.25;;;11.40;99.90;;;;;;4955984;28;20213;-72
2023/10/26 09:12:40;;;;;;;1.52;0.95;;;11.40;99.90;;;;;;4954514;29;20300;-72
2023/10/26 09:15:08;;;;;;;1.30;1.15;;;11.40;99.90;;;;;;4955121;28;20236;-71
2023/10/26 09:17:36;;;;;;;1.08;0.98;;;11.40;99.90;;;;;;4955203;28;20213;-72
2023/10/26 09:20:17;;;;;;;1.02;0.90;;;11.40;99.90;;;;;;4955543;28;20240;-72
2023/10/26 09:22:45;;;;;;;1.85;0.88;;;11.30;99.90;;;;;;4955427;28;20296;-72
2023/10/26 09:25:15;;;;;;;1.70;1.10;;;11.30;99.90;;;;;;4949090;28;20282;-72
2023/10/26 09:27:44;;;;;;;1.50;1.10;;;11.20;99.90;;;;;;4950792;29;20274;-72
2023/10/26 09:30:24;;;;;;;2.13;1.40;;;11.20;99.90;;;;;;4951241;29;20836;-72
2023/10/26 09:32:51;;;;;;;2.00;1.52;;;11.30;99.90;;;;;;4948299;29;20603;-72
2023/10/26 09:35:27;;;;;;;1.80;1.00;;;11.20;99.90;;;;;;4954622;28;20230;-72
2023/10/26 09:37:54;;;;;;;1.65;1.45;;;11.20;99.90;;;;;;4948097;29;20255;-72
2023/10/26 09:40:23;;;;;;;2.22;1.45;;;11.10;99.90;;;;;;4954454;28;20209;-72
2023/10/26 09:42:51;;;;;;;2.08;1.38;;;11.10;99.90;;;;;;4954721;28;20228;-72
2023/10/26 09:45:19;;;;;;;1.60;1.50;;;11.00;99.90;;;;;;4953677;28;20233;-72
2023/10/26 09:47:47;;;;;;;1.45;1.30;;;11.00;99.90;;;;;;4954764;28;20236;-72
2023/10/26 09:50:15;;;;;;;1.55;1.40;;;10.90;99.90;;;;;;4954987;28;20213;-72
2023/10/26 09:52:42;;;;;;;1.52;1.30;;;10.90;99.90;;;;;;4953817;28;20209;-72
2023/10/26 09:55:11;;;;;;;1.92;1.17;;;10.90;99.90;;;;;;4954497;28;20311;-72
2023/10/26 09:57:44;;;;;;;2.28;1.60;;;10.90;99.90;;;;;;4954153;28;20217;-72
2023/10/26 10:00:13;;;;;;;1.40;1.30;;;10.90;99.90;;;;;;4954728;28;20280;-71
2023/10/26 10:02:41;;;;;;;1.58;1.20;;;10.90;99.90;;;;;;4954364;28;20202;-72
2023/10/26 10:05:38;;;;;;;1.30;1.20;;;10.90;99.90;;;;;;4954072;28;20249;-72
2023/10/26 10:08:05;;;;;;;1.17;1.08;;;10.90;99.90;;;;;;4954088;28;20214;-72
2023/10/26 10:10:32;;;;;;;1.02;0.80;;;11.00;99.90;;;;;;4954599;28;20211;-72
2023/10/26 10:13:01;;;;;;;3.15;1.20;;;11.00;99.90;;;;;;4954244;28;20213;-72
2023/10/26 10:15:34;;;;;;;1.10;1.00;;;11.00;99.90;;;;;;4953346;28;20706;-72
2023/10/26 10:18:02;;;;;;;1.35;1.25;;;11.00;99.90;;;;;;4953878;28;20210;-72
2023/10/26 10:20:31;;;;;;;1.55;1.45;;;11.10;99.90;;;;;;4954165;28;20233;-71
2023/10/26 10:22:59;;;;;;;1.40;1.05;;;11.10;99.90;;;;;;4953746;28;20213;-72
2023/10/26 10:26:00;;;;;;;2.00;1.20;;;11.10;99.90;;;;;;4953563;28;20206;-72
2023/10/26 10:28:52;;;;;;;1.15;0.90;;;11.10;99.90;;;;;;4954013;28;20296;-72
2023/10/26 10:31:40;;;;;;;1.20;1.10;;;11.20;99.90;;;;;;4953764;28;20449;-72
2023/10/26 10:34:10;;;;;;;3.70;1.67;;;11.20;99.90;;;;;;4948780;29;20665;-72
2023/10/26 10:37:08;;;;;;;1.60;1.35;;;11.30;99.90;;;;;;4952987;28;20208;-72
2023/10/26 10:39:35;;;;;;;1.63;1.15;;;11.30;99.90;;;;;;4952107;29;20206;-72
2023/10/26 10:42:04;;;;;;;2.00;1.33;;;11.30;99.90;;;;;;4953409;28;20232;-72
2023/10/26 10:44:36;;;;;;;1.67;1.58;;;11.40;99.90;;;;;;4953204;28;20202;-72
2023/10/26 10:47:03;;;;;;;1.90;1.40;;;11.40;99.90;;;;;;4953612;29;20211;-72
2023/10/26 10:49:30;;;;;;;2.47;1.70;;;11.50;99.90;;;;;;4953521;28;20696;-72
2023/10/26 10:51:57;;;;;;;1.63;1.52;;;11.60;99.90;;;;;;4953308;28;20285;-72
2023/10/26 10:54:24;;;;;;;2.03;1.30;;;11.70;99.90;;;;;;4953197;29;20232;-72
2023/10/26 10:56:50;;;;;;;2.90;1.95;;;11.80;99.90;;;;;;4952817;28;20205;-72
2023/10/26 10:59:22;;;;;;;1.58;1.48;;;11.90;99.90;;;;;;4953514;28;20210;-72
2023/10/26 11:01:51;;;;;;;1.67;1.58;;;11.90;99.90;;;;;;4953306;28;20701;-71
2023/10/26 11:04:21;;;;;;;1.70;1.40;;;12.00;99.90;;;;;;4953496;28;20206;-72
2023/10/26 11:06:50;;;;;;;3.90;1.65;;;12.00;99.90;;;;;;4952240;28;20218;-72
2023/10/26 11:09:23;;;;;;;1.60;1.50;;;12.10;99.90;;;;;;4953683;28;20211;-72
2023/10/26 11:11:50;;;;;;;1.70;1.45;;;12.10;99.90;;;;;;4953267;29;20237;-72
2023/10/26 11:14:18;;;;;;;1.40;1.20;;;12.20;99.90;;;;;;4953066;28;20233;-72
2023/10/26 11:16:45;;;;;;;1.75;1.60;;;12.30;99.90;;;;;;4952528;28;20214;-72
2023/10/26 11:19:13;;;;;;;1.70;1.60;;;12.30;99.90;;;;;;4953043;28;20218;-72
2023/10/26 11:21:40;;;;;;;2.40;1.67;;;12.40;99.90;;;;;;4952564;28;20253;-72
2023/10/26 11:24:08;;;;;;;2.00;1.50;;;12.40;99.90;;;;;;4952827;28;20203;-72
2023/10/26 11:26:35;;;;;;;1.50;1.40;;;12.40;99.90;;;;;;4952487;28;20206;-71
2023/10/26 11:29:04;;;;;;;1.83;1.63;;;12.40;99.90;;;;;;4952654;28;20237;-72
2023/10/26 11:31:41;;;;;;;1.90;1.70;;;12.40;99.90;;;;;;4952407;28;20234;-72
2023/10/26 11:34:09;;;;;;;1.63;1.52;;;12.40;99.90;;;;;;4952907;28;20203;-72
2023/10/26 11:36:38;;;;;;;1.40;1.30;;;12.30;99.90;;;;;;4952399;28;20207;-72
2023/10/26 11:39:06;;;;;;;2.33;1.33;;;12.30;99.90;;;;;;4953237;28;20214;-72
2023/10/26 11:41:34;;;;;;;1.88;1.77;;;12.30;99.90;;;;;;4952704;28;20719;-72
2023/10/26 11:44:01;;;;;;;1.75;1.55;;;12.30;99.90;;;;;;4952130;28;20222;-72
2023/10/26 11:46:32;;;;;;;2.83;1.55;;;12.40;99.90;;;;;;4952548;28;20278;-72
2023/10/26 11:48:59;;;;;;;1.67;1.58;;;12.40;99.90;;;;;;4945773;29;20210;-72
2023/10/26 11:51:27;;;;;;;2.70;2.08;;;12.50;99.90;;;;;;4952727;28;20222;-72
2023/10/26 11:53:56;;;;;;;2.30;2.13;;;12.60;99.90;;;;;;4952470;28;20680;-72
2023/10/26 11:56:23;;;;;;;1.90;1.80;;;12.70;99.90;;;;;;4952212;28;20230;-72
2023/10/26 11:58:49;;;;;;;1.73;1.63;;;12.80;99.90;;;;;;4952213;28;20949;-72
2023/10/26 12:01:16;;;;;;;2.00;1.80;;;12.80;99.90;;;;;;4952780;28;20240;-72
2023/10/26 12:03:47;;;;;;;2.80;2.08;;;13.00;99.90;;;;;;4952139;28;20707;-72
2023/10/26 12:06:14;;;;;;;2.15;1.95;;;13.20;99.90;;;;;;4952039;28;20262;-72
2023/10/26 12:08:41;;;;;;;2.03;1.80;;;13.40;99.90;;;;;;4951615;28;20285;-72
2023/10/26 12:11:09;;;;;;;2.17;1.73;;;13.60;99.90;;;;;;4952404;28;20754;-72
2023/10/26 12:13:36;;;;;;;3.07;1.60;;;13.90;99.90;;;;;;4951845;28;20242;-72
2023/10/26 12:16:04;;;;;;;1.60;1.40;;;14.10;99.90;;;;;;4951690;28;20486;-72
2023/10/26 12:18:33;;;;;;;1.50;1.40;;;14.20;99.90;;;;;;4952535;28;20468;-73
2023/10/26 12:21:00;;;;;;;1.90;1.77;;;14.30;99.90;;;;;;4951799;28;20494;-72
2023/10/26 12:23:27;;;;;;;2.03;1.60;;;14.40;99.90;;;;;;4952208;28;20476;-72
2023/10/26 12:25:53;;;;;;;2.40;1.80;;;14.50;99.90;;;;;;4951597;28;20471;-73
2023/10/26 12:28:21;;;;;;;2.10;1.70;;;14.70;99.90;;;;;;4952195;28;20468;-72
2023/10/26 12:30:49;;;;;;;1.60;1.50;;;14.90;99.90;;;;;;4951725;28;20600;-72
2023/10/26 12:33:16;;;;;;;1.77;1.67;;;15.10;99.90;;;;;;4952358;28;20548;-72
2023/10/26 12:35:43;;;;;;;1.47;1.20;;;15.30;99.90;;;;;;4950826;28;20492;-72
2023/10/26 12:38:09;;;;;;;1.20;1.00;;;15.40;99.90;;;;;;4951902;28;20980;-72
2023/10/26 12:40:36;;;;;;;1.10;0.87;;;15.40;99.90;;;;;;4952021;28;20993;-72
2023/10/26 12:43:03;;;;;;;1.53;1.20;;;15.50;99.90;;;;;;4951819;28;20468;-72
2023/10/26 12:45:31;;;;;;;1.90;1.20;;;15.60;99.90;;;;;;4951547;28;20471;-72
2023/10/26 12:47:59;;;;;;;1.20;1.10;;;15.70;99.90;;;;;;4951739;28;20541;-72
2023/10/26 12:50:26;;;;;;;1.00;0.90;;;15.90;99.90;;;;;;4951807;28;20474;-72
2023/10/26 12:53:02;;;;;;;1.10;0.90;;;16.00;99.90;;;;;;4952240;28;20471;-72
2023/10/26 12:55:29;;;;;;;1.70;1.60;;;16.10;99.90;;;;;;4951244;28;20903;-73
2023/10/26 12:58:19;;;;;;;1.83;1.00;;;16.10;99.90;;;;;;4951333;28;20464;-72
2023/10/26 13:00:54;;;;;;;1.33;1.07;;;16.00;99.90;;;;;;4951982;28;20881;-72
2023/10/26 13:06:26;;;;;;;1.00;0.90;;;15.90;99.90;;;;;;4945379;29;20453;-72
2023/10/26 13:08:57;;;;;;;2.20;1.10;;;15.90;99.90;;;;;;4951083;29;20471;-72
2023/10/26 13:11:24;;;;;;;1.33;1.23;;;15.90;99.90;;;;;;4951766;28;20487;-72
2023/10/26 13:13:57;;;;;;;1.10;1.00;;;15.80;99.90;;;;;;4949888;29;20475;-72
2023/10/26 13:16:27;;;;;;;1.10;0.97;;;15.70;99.90;;;;;;4951568;28;20480;-72
2023/10/26 13:18:54;;;;;;;1.43;1.17;;;15.40;99.90;;;;;;4947615;28;20471;-72
2023/10/26 13:21:22;;;;;;;1.03;0.93;;;15.40;99.90;;;;;;4942413;28;21029;-72
2023/10/26 13:23:48;;;;;;;1.87;1.20;;;15.20;99.90;;;;;;4953863;29;20531;-72
2023/10/26 13:26:15;;;;;;;2.03;1.40;;;15.10;99.90;;;;;;4954801;28;20961;-72
2023/10/26 13:28:42;;;;;;;1.40;1.30;;;15.00;99.90;;;;;;4954232;28;20467;-72
2023/10/26 13:31:09;;;;;;;1.90;1.27;;;15.00;99.90;;;;;;4954648;28;20518;-72
2023/10/26 13:33:37;;;;;;;1.40;1.30;;;14.90;99.90;;;;;;4954911;28;20471;-72
2023/10/26 13:36:03;;;;;;;1.70;1.50;;;14.80;99.90;;;;;;4953669;28;20481;-72
2023/10/26 13:38:30;;;;;;;1.53;1.37;;;14.70;99.90;;;;;;4954677;28;20547;-72
2023/10/26 13:40:57;;;;;;;3.63;1.50;;;14.60;99.90;;;;;;4949424;28;20495;-72
2023/10/26 13:43:24;;;;;;;2.50;1.67;;;14.60;99.90;;;;;;4954559;28;20474;-72
2023/10/26 13:45:50;;;;;;;2.10;1.43;;;14.50;99.90;;;;;;4954023;28;20474;-72
2023/10/26 13:48:17;;;;;;;2.20;1.77;;;14.50;99.90;;;;;;4954578;28;20471;-72
2023/10/26 13:50:45;;;;;;;1.93;1.40;;;14.50;99.90;;;;;;4953847;28;20494;-72
2023/10/26 13:53:12;;;;;;;3.47;1.30;;;14.50;99.90;;;;;;4954652;28;20498;-72
2023/10/26 13:55:39;;;;;;;3.20;1.57;;;14.50;99.90;;;;;;4954106;28;20495;-71
2023/10/26 13:58:06;;;;;;;3.57;2.03;;;14.40;99.90;;;;;;4946905;28;20518;-71
2023/10/26 14:00:33;;;;;;;2.03;1.43;;;14.40;99.90;;;;;;4947723;28;20523;-71
2023/10/26 14:03:01;;;;;;;7.23;3.20;;;14.40;99.90;;;;;;4952208;28;20463;-71
2023/10/26 14:05:27;;;;;;;6.50;1.90;;;14.30;99.90;;;;;;4947340;28;20471;-71
2023/10/26 14:07:56;;;;;;;4.60;1.53;;;14.30;99.90;;;;;;4953714;28;20463;-72
2023/10/26 14:10:23;;;;;;;2.00;1.50;;;14.20;99.90;;;;;;4954163;28;20468;-72
2023/10/26 14:12:50;;;;;;;3.37;2.37;;;14.10;99.90;;;;;;4953173;28;20468;-72
2023/10/26 14:15:17;;;;;;;4.27;1.43;;;14.10;99.90;;;;;;4953871;28;20495;-71
2023/10/26 14:17:43;;;;;;;2.13;1.90;;;14.00;99.90;;;;;;4953347;28;20463;-72
2023/10/26 14:20:11;;;;;;;5.30;1.43;;;14.00;99.90;;;;;;4953617;28;20460;-71
2023/10/26 14:22:37;;;;;;;2.07;1.47;;;13.90;99.90;;;;;;4953742;28;20518;-71
2023/10/26 14:25:06;;;;;;;2.10;1.30;;;13.90;99.90;;;;;;4953000;28;20476;-71
2023/10/26 14:27:33;;;;;;;3.47;1.43;;;13.90;99.90;;;;;;4953537;28;20463;-71
2023/10/26 14:30:00;;;;;;;1.30;1.20;;;13.80;99.90;;;;;;4953324;28;20472;-71
2023/10/26 14:32:26;;;;;;;2.37;1.10;;;13.80;99.90;;;;;;4953474;28;20492;-71
2023/10/26 14:34:53;;;;;;;4.63;1.17;;;13.80;99.90;;;;;;4952967;28;20852;-71
2023/10/26 14:37:20;;;;;;;3.77;1.90;;;13.70;99.90;;;;;;4953086;28;20521;-71
2023/10/26 14:39:47;;;;;;;1.17;1.00;;;13.70;99.90;;;;;;4953205;28;20856;-71
2023/10/26 14:42:15;;;;;;;1.40;1.30;;;13.70;99.90;;;;;;4953200;28;20495;-71
2023/10/26 14:44:42;;;;;;;2.17;1.50;;;13.60;99.90;;;;;;4953574;28;20884;-71
2023/10/26 14:47:08;;;;;;;1.93;1.40;;;13.60;99.90;;;;;;4953054;28;20471;-71
2023/10/26 14:49:35;;;;;;;3.50;1.27;;;13.50;99.90;;;;;;4953016;28;20475;-71
2023/10/26 14:52:02;;;;;;;2.10;1.63;;;13.50;99.90;;;;;;4953046;28;20483;-71
2023/10/26 14:54:29;;;;;;;2.13;1.10;;;13.50;99.90;;;;;;4953281;28;20669;-71
2023/10/26 14:56:55;;;;;;;1.57;0.93;;;13.50;99.90;;;;;;4952012;28;21038;-71
2023/10/26 14:59:23;;;;;;;2.47;1.50;;;13.50;99.90;;;;;;4953315;28;20466;-71
2023/10/26 15:01:50;;;;;;;7.10;1.40;;;13.40;99.90;;;;;;4952454;28;20491;-71
2023/10/26 15:04:17;;;;;;;1.20;1.10;;;13.40;99.90;;;;;;4953291;28;20471;-72
2023/10/26 15:06:47;;;;;;;2.80;1.20;;;13.40;99.90;;;;;;4952870;28;20987;-71
2023/10/26 15:09:14;;;;;;;4.63;1.33;;;13.40;99.90;;;;;;4948130;29;20470;-71
2023/10/26 15:11:41;;;;;;;1.40;1.00;;;13.30;99.90;;;;;;4952627;28;20560;-71
2023/10/26 15:14:10;;;;;;;1.93;0.97;;;13.30;99.90;;;;;;4952478;28;23697;-71
2023/10/26 15:16:38;;;;;;;2.60;1.50;;;13.20;99.90;;;;;;4952335;28;20570;-71
2023/10/26 15:19:04;;;;;;;1.33;1.20;;;13.20;99.90;;;;;;4951998;28;20473;-72
2023/10/26 15:21:31;;;;;;;1.33;0.97;;;13.10;99.90;;;;;;4952648;28;20231;-72
2023/10/26 15:23:58;;;;;;;3.17;1.48;;;13.10;99.90;;;;;;4952486;28;20466;-71
2023/10/26 15:26:24;;;;;;;4.33;1.57;;;13.10;99.90;;;;;;4952263;28;20213;-71
2023/10/26 15:28:51;;;;;;;2.95;1.13;;;13.10;99.90;;;;;;4952193;28;20852;-71
2023/10/26 15:31:18;;;;;;;4.47;1.57;;;13.00;99.90;;;;;;4952565;28;20232;-71
2023/10/26 15:33:46;;;;;;;2.83;1.30;;;13.00;99.90;;;;;;4952601;28;20470;-71
2023/10/26 15:36:13;;;;;;;2.20;1.27;;;12.90;99.90;;;;;;4951596;28;20574;-71
2023/10/26 15:38:41;;;;;;;2.20;1.20;;;12.80;99.90;;;;;;4952450;28;20818;-71
2023/10/26 15:41:09;;;;;;;1.92;1.48;;;12.80;99.90;;;;;;4951500;28;20709;-71
2023/10/26 15:43:36;;;;;;;3.92;1.10;;;12.80;99.90;;;;;;4951781;28;20644;-71
2023/10/26 15:46:03;;;;;;;1.55;1.42;;;12.80;99.90;;;;;;4951732;28;20219;-71
2023/10/26 15:48:30;;;;;;;4.27;1.30;;;12.80;99.90;;;;;;4952002;28;20564;-71
2023/10/26 15:51:01;;;;;;;2.05;1.63;;;12.70;99.90;;;;;;4952272;28;20486;-71
2023/10/26 15:53:28;;;;;;;3.05;1.38;;;12.70;99.90;;;;;;4952340;28;20516;-71
2023/10/26 15:55:58;;;;;;;2.08;1.10;;;12.70;99.90;;;;;;4946715;28;20232;-71
2023/10/26 15:58:24;;;;;;;4.75;1.55;;;12.60;99.90;;;;;;4952354;28;20667;-72
2023/10/26 16:00:58;;;;;;;3.38;1.35;;;12.60;99.90;;;;;;4952347;28;20238;-71
2023/10/26 16:03:29;;;;;;;1.77;1.50;;;12.60;99.90;;;;;;4951966;29;20212;-71
2023/10/26 16:06:04;;;;;;;5.00;1.38;;;12.60;99.90;;;;;;4947251;29;20326;-71
2023/10/26 16:08:31;;;;;;;1.83;1.35;;;12.60;99.90;;;;;;4951426;28;20210;-71
2023/10/26 16:10:59;;;;;;;2.75;1.58;;;12.50;99.90;;;;;;4951614;28;20242;-72
2023/10/26 16:13:26;;;;;;;4.30;1.40;;;12.50;99.90;;;;;;4951775;28;20678;-71
2023/10/26 16:15:53;;;;;;;5.63;1.40;;;12.40;99.90;;;;;;4951911;28;20491;-72
2023/10/26 16:18:19;;;;;;;3.70;1.42;;;12.40;99.90;;;;;;4951781;28;20270;-73
2023/10/26 16:20:46;;;;;;;2.63;1.65;;;12.40;99.90;;;;;;4952537;28;20242;-71
2023/10/26 16:23:14;;;;;;;10.57;1.83;;;12.30;99.90;;;;;;4951614;28;20212;-71
2023/10/26 16:25:41;;;;;;;3.00;1.48;;;12.40;99.90;;;;;;4951190;28;20212;-71
2023/10/26 16:28:10;;;;;;;2.40;1.75;;;12.30;99.90;;;;;;4951825;28;20314;-71
2023/10/26 16:30:39;;;;;;;4.87;1.57;;;12.30;99.90;;;;;;4951784;28;20235;-71